Beaumont, California
Current Conditions -  °F | °C
As of 3:58 AM on Monday 24 Nov 2014 (Local Time) from KRIV Reporting Station
Clear Clear  
Wind Chill: 42°   Ceiling: Unl
Heat Index: 42°   Visibility: 10mi
Dew Point: 12°   Wind: 2mph
Humidity: 29%   Direction: 310°NW
Pressure: 30.17"   Gusts: NA
Location:  33.93°N, 116.97°W
Report Text: KRIV 241158Z AUTO 31002KT 10SM CLR 06/M11 A3017 RMK AO2 SLP214 T00581111 10116 20048 57004
Loading
Personal Weather Stations






























Interactive Weather Map New forecast layout! Learn more

10-Day Weather Forecast

Advertisements
Track Severe Weather on mobile